createdAt,value
2022-12-18T00:02:00.793Z,31.63
2022-12-18T00:04:29.129Z,31.15
2022-12-18T00:06:56.933Z,31.40
2022-12-18T00:09:24.802Z,31.13
2022-12-18T00:11:52.807Z,32.28
2022-12-18T00:14:20.277Z,31.25
2022-12-18T00:16:48.405Z,31.13
2022-12-18T00:19:16.429Z,31.15
2022-12-18T00:21:44.448Z,28.85
2022-12-18T00:24:12.659Z,28.00
2022-12-18T00:26:40.862Z,29.63
2022-12-18T00:29:19.550Z,29.38
2022-12-18T00:31:47.954Z,30.17
2022-12-18T00:34:15.812Z,28.30
2022-12-18T00:36:43.628Z,28.02
2022-12-18T00:39:12.777Z,27.77
2022-12-18T00:41:59.255Z,28.20
2022-12-18T00:44:26.798Z,26.55
2022-12-18T00:46:54.412Z,27.80
2022-12-18T00:49:22.250Z,26.83
2022-12-18T00:51:50.736Z,27.05
2022-12-18T00:54:19.114Z,24.40
2022-12-18T00:56:50.178Z,25.73
2022-12-18T00:59:23.464Z,24.63
2022-12-18T01:03:36.467Z,24.73
2022-12-18T01:06:08.648Z,25.15
2022-12-18T01:08:36.904Z,25.23
2022-12-18T01:11:12.180Z,24.55
2022-12-18T01:13:40.571Z,24.90
2022-12-18T01:16:08.556Z,24.45
2022-12-18T01:18:36.485Z,25.92
2022-12-18T01:21:07.650Z,23.52
2022-12-18T01:23:38.446Z,24.38
2022-12-18T01:26:07.212Z,23.75
2022-12-18T01:28:36.504Z,24.13
2022-12-18T01:31:12.496Z,23.27
2022-12-18T01:33:40.379Z,23.23
2022-12-18T01:36:08.234Z,23.67
2022-12-18T01:38:36.176Z,22.52
2022-12-18T01:41:03.913Z,24.55
2022-12-18T01:43:49.031Z,21.63
2022-12-18T01:46:17.893Z,23.40
2022-12-18T01:48:48.028Z,23.17
2022-12-18T01:51:15.622Z,23.15
2022-12-18T01:53:44.051Z,23.33
2022-12-18T01:56:14.730Z,20.83
2022-12-18T01:58:54.494Z,22.95
2022-12-18T02:01:23.797Z,22.27
2022-12-18T02:03:51.486Z,22.50
2022-12-18T02:06:39.352Z,20.20
2022-12-18T02:09:12.720Z,21.48
2022-12-18T02:11:43.315Z,21.45
2022-12-18T02:14:29.579Z,21.38
2022-12-18T02:17:09.222Z,21.52
2022-12-18T02:19:37.050Z,20.25
2022-12-18T02:22:14.847Z,20.83
2022-12-18T02:24:45.292Z,20.27
2022-12-18T02:30:10.092Z,18.77
2022-12-18T02:32:42.005Z,19.05
2022-12-18T02:35:16.794Z,19.85
2022-12-18T02:37:48.526Z,21.42
2022-12-18T02:40:17.998Z,19.23
2022-12-18T02:42:46.220Z,19.25
2022-12-18T02:45:16.977Z,19.48
2022-12-18T02:47:48.010Z,20.20
2022-12-18T02:50:24.798Z,20.23
2022-12-18T02:53:09.254Z,19.05
2022-12-18T02:55:37.633Z,20.38
2022-12-18T02:58:21.680Z,19.40
2022-12-18T03:00:55.007Z,18.25
2022-12-18T03:03:29.492Z,18.00
2022-12-18T03:06:06.429Z,17.15
2022-12-18T03:08:38.610Z,18.88
2022-12-18T03:11:07.979Z,18.55
2022-12-18T03:16:07.379Z,17.42
2022-12-18T03:18:38.303Z,18.83
2022-12-18T03:21:07.411Z,18.20
2022-12-18T03:23:41.973Z,17.30
2022-12-18T03:26:13.458Z,17.65
2022-12-18T03:28:45.937Z,17.38
2022-12-18T03:31:15.874Z,17.00
2022-12-18T03:33:48.232Z,17.88
2022-12-18T03:36:16.681Z,18.30
2022-12-18T03:38:44.220Z,17.48
2022-12-18T03:41:21.538Z,16.20
2022-12-18T03:44:16.973Z,16.65
2022-12-18T03:46:50.714Z,17.17
2022-12-18T03:49:44.931Z,16.73
2022-12-18T03:52:22.119Z,15.57
2022-12-18T03:54:50.152Z,16.08
2022-12-18T03:57:20.272Z,16.17
2022-12-18T03:59:52.438Z,16.45
2022-12-18T04:02:24.479Z,15.48
2022-12-18T04:04:54.455Z,16.75
2022-12-18T04:07:23.537Z,16.17
2022-12-18T04:09:54.870Z,14.93
2022-12-18T04:12:28.404Z,15.50
2022-12-18T04:14:57.523Z,15.45
2022-12-18T04:17:26.007Z,15.48
2022-12-18T04:19:53.872Z,15.80
2022-12-18T04:22:22.551Z,15.85
2022-12-18T04:24:55.026Z,15.32
2022-12-18T04:27:30.813Z,14.57
2022-12-18T04:30:00.875Z,15.25
2022-12-18T04:32:29.269Z,15.63
2022-12-18T04:34:56.891Z,15.18
2022-12-18T04:37:25.272Z,15.15
2022-12-18T04:39:53.161Z,15.07
2022-12-18T04:42:28.365Z,14.07
2022-12-18T04:44:55.864Z,15.02
2022-12-18T04:47:23.798Z,15.13
2022-12-18T04:49:51.333Z,15.05
2022-12-18T04:52:19.798Z,14.85
2022-12-18T04:54:50.063Z,15.07
2022-12-18T04:59:46.701Z,13.52
2022-12-18T05:02:14.575Z,15.45
2022-12-18T05:04:42.203Z,15.50
2022-12-18T05:07:09.708Z,15.00
2022-12-18T05:09:37.516Z,14.57
2022-12-18T05:12:05.299Z,14.73
2022-12-18T05:14:32.717Z,15.48
2022-12-18T05:17:01.257Z,14.02
2022-12-18T05:19:29.272Z,15.70
2022-12-18T05:21:56.733Z,14.27
2022-12-18T05:24:24.130Z,15.13
2022-12-18T05:26:51.785Z,15.57
2022-12-18T05:29:19.703Z,15.82
2022-12-18T05:31:49.138Z,14.45
2022-12-18T05:34:16.852Z,14.60
2022-12-18T05:36:44.393Z,15.88
2022-12-18T05:39:12.311Z,14.75
2022-12-18T05:41:40.091Z,14.93
2022-12-18T05:44:07.708Z,16.13
2022-12-18T05:46:35.165Z,14.88
2022-12-18T05:49:03.185Z,15.73
2022-12-18T05:51:30.639Z,15.32
2022-12-18T05:53:58.168Z,15.48
2022-12-18T05:56:25.834Z,15.82
2022-12-18T05:58:54.384Z,15.32
2022-12-18T06:01:24.505Z,15.10
2022-12-18T06:03:52.542Z,14.85
2022-12-18T06:06:21.853Z,14.65
2022-12-18T06:08:50.338Z,15.23
2022-12-18T06:11:19.348Z,15.35
2022-12-18T06:13:47.941Z,15.70
2022-12-18T06:16:15.407Z,15.50
2022-12-18T06:18:43.128Z,14.93
2022-12-18T06:21:12.968Z,15.45
2022-12-18T06:23:41.243Z,14.80
2022-12-18T06:26:10.493Z,14.73
2022-12-18T06:28:38.266Z,15.95
2022-12-18T06:31:08.287Z,15.90
2022-12-18T06:33:36.816Z,15.48
2022-12-18T06:36:12.050Z,15.45
2022-12-18T06:38:43.188Z,15.25
2022-12-18T06:41:19.587Z,16.42
2022-12-18T06:43:47.788Z,15.23
2022-12-18T06:46:15.503Z,14.50
2022-12-18T06:48:43.415Z,13.70
2022-12-18T06:51:10.982Z,14.90
2022-12-18T06:53:38.641Z,15.10
2022-12-18T06:56:10.259Z,15.52
2022-12-18T06:58:38.987Z,14.50
2022-12-18T07:01:07.877Z,14.13
2022-12-18T07:03:35.570Z,14.75
2022-12-18T07:06:03.499Z,15.00
2022-12-18T07:08:31.920Z,14.82
2022-12-18T07:10:59.735Z,15.00
2022-12-18T07:13:27.982Z,15.95
2022-12-18T07:15:55.686Z,14.90
2022-12-18T07:18:23.118Z,15.43
2022-12-18T07:20:51.900Z,15.27
2022-12-18T07:23:20.407Z,14.90
2022-12-18T07:25:49.023Z,14.73
2022-12-18T07:28:18.000Z,15.75
2022-12-18T07:30:45.557Z,14.60
2022-12-18T07:33:13.015Z,15.07
2022-12-18T07:35:40.657Z,14.63
2022-12-18T07:38:08.191Z,15.05
2022-12-18T07:40:35.688Z,15.43
2022-12-18T07:43:03.169Z,15.18
2022-12-18T07:45:30.761Z,14.70
2022-12-18T07:47:58.255Z,14.57
2022-12-18T07:50:25.865Z,14.43
2022-12-18T07:52:53.354Z,14.48
2022-12-18T07:55:21.899Z,15.02
2022-12-18T07:57:56.555Z,13.60
2022-12-18T08:00:28.416Z,14.68
2022-12-18T08:02:56.343Z,13.80
2022-12-18T08:05:23.970Z,15.57
2022-12-18T08:07:51.513Z,14.45
2022-12-18T08:10:21.032Z,13.77
2022-12-18T08:12:51.065Z,13.88
2022-12-18T08:15:19.078Z,16.27
2022-12-18T08:17:46.979Z,15.02
2022-12-18T08:20:16.027Z,14.45
2022-12-18T08:22:44.042Z,14.45
2022-12-18T08:25:12.056Z,15.38
2022-12-18T08:27:39.583Z,14.52
2022-12-18T08:30:07.435Z,13.70
2022-12-18T08:32:35.218Z,14.95
2022-12-18T08:35:02.988Z,13.98
2022-12-18T08:37:30.712Z,14.20
2022-12-18T08:39:58.416Z,14.10
2022-12-18T08:42:45.387Z,14.20
2022-12-18T08:45:14.280Z,14.18
2022-12-18T08:47:41.782Z,15.00
2022-12-18T08:50:12.944Z,14.50
2022-12-18T08:52:40.449Z,14.68
2022-12-18T08:55:08.578Z,13.75
2022-12-18T08:57:36.304Z,14.27
2022-12-18T09:00:05.577Z,14.63
2022-12-18T09:02:33.385Z,14.50
2022-12-18T09:05:01.448Z,13.90
2022-12-18T09:07:29.110Z,14.35
2022-12-18T09:09:57.146Z,14.32
2022-12-18T09:12:25.251Z,14.48
2022-12-18T09:14:53.217Z,15.68
2022-12-18T09:17:21.508Z,14.05
2022-12-18T09:19:49.624Z,14.77
2022-12-18T09:22:17.848Z,14.05
2022-12-18T09:24:45.929Z,13.93
2022-12-18T09:27:13.616Z,14.32
2022-12-18T09:29:41.261Z,15.18
2022-12-18T09:32:09.071Z,14.15
2022-12-18T09:34:36.415Z,14.52
2022-12-18T09:37:03.799Z,14.68
2022-12-18T09:39:31.446Z,14.20
2022-12-18T09:42:00.044Z,13.63
2022-12-18T09:44:27.593Z,12.55
2022-12-18T09:46:58.524Z,14.68
2022-12-18T09:49:28.435Z,13.13
2022-12-18T09:52:16.192Z,13.45
2022-12-18T09:54:45.358Z,12.93
2022-12-18T09:57:16.674Z,12.48
2022-12-18T09:59:46.858Z,13.95
2022-12-18T10:02:18.595Z,14.75
2022-12-18T10:04:50.685Z,14.88
2022-12-18T10:07:24.602Z,17.00
2022-12-18T10:10:09.173Z,23.67
2022-12-18T10:12:53.545Z,19.60
2022-12-18T10:15:22.184Z,17.48
2022-12-18T10:17:56.451Z,13.50
2022-12-18T10:20:59.458Z,13.95
2022-12-18T10:23:44.960Z,13.68
2022-12-18T10:26:16.440Z,14.80
2022-12-18T10:28:45.267Z,12.82
2022-12-18T10:31:18.155Z,13.40
2022-12-18T10:33:45.835Z,13.20
2022-12-18T10:36:13.925Z,15.52
2022-12-18T10:38:42.711Z,14.48
2022-12-18T10:41:23.288Z,14.65
2022-12-18T10:44:18.173Z,19.33
2022-12-18T10:46:54.699Z,21.85
2022-12-18T10:49:31.193Z,12.73
2022-12-18T10:52:21.709Z,13.75
2022-12-18T10:55:03.891Z,13.00
2022-12-18T10:57:32.847Z,13.75
2022-12-18T11:00:21.874Z,14.07
2022-12-18T11:02:51.735Z,13.50
2022-12-18T11:05:27.071Z,14.32
2022-12-18T11:07:56.785Z,13.95
2022-12-18T11:10:32.404Z,14.30
2022-12-18T11:13:24.463Z,13.23
2022-12-18T11:15:54.107Z,13.18
2022-12-18T11:18:33.235Z,14.60
2022-12-18T11:21:09.778Z,13.60
2022-12-18T11:23:59.862Z,13.07
2022-12-18T11:26:38.272Z,13.38
2022-12-18T11:29:19.743Z,12.85
2022-12-18T11:31:49.882Z,14.43
2022-12-18T11:34:29.477Z,18.25
2022-12-18T11:37:01.781Z,15.82
2022-12-18T11:39:54.426Z,16.65
2022-12-18T11:42:46.327Z,14.43
2022-12-18T11:45:17.823Z,13.82
2022-12-18T11:47:55.031Z,13.52
2022-12-18T11:50:26.786Z,13.98
2022-12-18T11:52:57.489Z,14.35
2022-12-18T11:55:51.204Z,14.18
2022-12-18T11:58:31.708Z,14.18
2022-12-18T12:01:16.151Z,14.82
2022-12-18T12:03:55.834Z,14.65
2022-12-18T12:07:03.115Z,13.77
2022-12-18T12:09:48.207Z,13.40
2022-12-18T12:12:55.087Z,14.65
2022-12-18T12:15:46.995Z,14.48
2022-12-18T12:18:37.486Z,16.95
2022-12-18T12:21:16.583Z,13.80
2022-12-18T12:23:58.952Z,14.63
2022-12-18T12:26:39.735Z,14.18
2022-12-18T12:29:21.338Z,14.25
2022-12-18T12:32:12.460Z,14.68
2022-12-18T12:35:09.843Z,13.67
2022-12-18T12:37:59.371Z,15.70
2022-12-18T12:43:21.318Z,15.27
2022-12-18T12:46:08.118Z,15.10
2022-12-18T12:48:56.695Z,13.82
2022-12-18T12:51:27.270Z,14.15
2022-12-18T12:53:58.725Z,14.38
2022-12-18T12:56:37.399Z,17.98
2022-12-18T12:59:23.702Z,22.33
2022-12-18T13:02:29.641Z,20.70
2022-12-18T13:05:00.439Z,17.20
2022-12-18T13:07:58.506Z,17.90
2022-12-18T13:10:38.817Z,19.55
2022-12-18T13:13:11.468Z,28.05
2022-12-18T13:15:46.059Z,23.98
2022-12-18T13:18:21.462Z,15.63
2022-12-18T13:20:55.439Z,16.67
2022-12-18T13:23:37.913Z,16.95
2022-12-18T13:26:11.642Z,16.33
2022-12-18T13:28:49.166Z,15.93
2022-12-18T13:31:42.813Z,15.15
2022-12-18T13:34:27.701Z,14.82
2022-12-18T13:37:00.514Z,15.07
2022-12-18T13:39:36.939Z,16.20
2022-12-18T13:42:07.600Z,14.23
2022-12-18T13:44:40.550Z,14.82
2022-12-18T13:47:29.357Z,13.98
2022-12-18T13:49:58.201Z,14.57
2022-12-18T13:52:38.236Z,16.92
2022-12-18T13:55:08.858Z,14.40
2022-12-18T13:57:41.947Z,15.35
2022-12-18T14:00:29.722Z,15.32
2022-12-18T14:02:58.877Z,14.70
2022-12-18T14:05:32.852Z,15.45
2022-12-18T14:08:12.647Z,15.93
2022-12-18T14:10:50.208Z,14.40
2022-12-18T14:13:29.271Z,15.55
2022-12-18T14:15:59.203Z,15.43
2022-12-18T14:19:04.458Z,15.38
2022-12-18T14:21:50.353Z,15.15
2022-12-18T14:24:21.365Z,15.27
2022-12-18T14:26:51.085Z,15.48
2022-12-18T14:29:28.605Z,16.00
2022-12-18T14:32:20.361Z,15.82
2022-12-18T14:34:55.570Z,22.52
2022-12-18T14:37:26.933Z,16.15
2022-12-18T14:40:02.136Z,16.73
2022-12-18T14:42:32.528Z,15.88
2022-12-18T14:45:41.601Z,15.90
2022-12-18T14:48:13.006Z,15.88
2022-12-18T14:50:43.247Z,16.80
2022-12-18T14:53:31.102Z,17.58
2022-12-18T14:55:59.124Z,15.13
2022-12-18T14:58:27.375Z,16.35
2022-12-18T15:00:57.182Z,15.63
2022-12-18T15:03:24.512Z,15.32
2022-12-18T15:05:52.566Z,15.18
2022-12-18T15:08:39.235Z,15.35
2022-12-18T15:11:34.289Z,14.68
2022-12-18T15:14:43.289Z,15.95
2022-12-18T15:17:25.783Z,16.83
2022-12-18T15:20:09.779Z,16.42
2022-12-18T15:22:40.840Z,16.55
2022-12-18T15:25:35.466Z,17.75
2022-12-18T15:28:03.242Z,16.63
2022-12-18T15:30:30.723Z,17.45
2022-12-18T15:33:27.417Z,16.73
2022-12-18T15:36:03.562Z,16.55
2022-12-18T15:38:31.169Z,15.93
2022-12-18T15:40:59.740Z,16.92
2022-12-18T15:43:37.966Z,17.05
2022-12-18T15:46:14.154Z,17.80
2022-12-18T15:48:50.176Z,17.63
2022-12-18T15:51:36.415Z,17.30
2022-12-18T15:54:07.483Z,18.48
2022-12-18T15:56:53.074Z,17.13
2022-12-18T15:59:22.404Z,17.92
2022-12-18T16:01:54.170Z,18.27
2022-12-18T16:04:36.970Z,18.50
2022-12-18T16:07:25.542Z,17.98
2022-12-18T16:09:51.803Z,20.77
2022-12-18T16:12:23.442Z,18.85
2022-12-18T16:14:50.908Z,19.27
2022-12-18T16:17:21.575Z,19.23
2022-12-18T16:19:50.031Z,18.85
2022-12-18T16:22:24.736Z,19.30
2022-12-18T16:24:54.143Z,19.35
2022-12-18T16:27:23.283Z,19.98
2022-12-18T16:29:50.813Z,20.05
2022-12-18T16:32:23.415Z,20.27
2022-12-18T16:34:51.135Z,20.08
2022-12-18T16:37:19.437Z,19.40
2022-12-18T16:39:46.986Z,19.35
2022-12-18T16:42:20.978Z,19.73
2022-12-18T16:44:50.166Z,20.08
2022-12-18T16:47:19.332Z,20.52
2022-12-18T16:49:47.475Z,21.33
2022-12-18T16:52:15.985Z,21.30
2022-12-18T16:54:45.321Z,20.05
2022-12-18T16:57:16.231Z,19.25
2022-12-18T16:59:43.960Z,21.27
2022-12-18T17:02:23.995Z,21.00
2022-12-18T17:04:54.907Z,19.33
2022-12-18T17:07:22.814Z,20.80
2022-12-18T17:09:54.433Z,20.88
2022-12-18T17:12:21.890Z,20.25
2022-12-18T17:14:53.134Z,20.67
2022-12-18T17:17:23.337Z,21.30
2022-12-18T17:19:52.695Z,20.67
2022-12-18T17:22:21.650Z,22.13
2022-12-18T17:24:50.156Z,21.30
2022-12-18T17:27:18.042Z,21.73
2022-12-18T17:29:48.227Z,21.38
2022-12-18T17:32:16.993Z,21.92
2022-12-18T17:34:45.334Z,21.35
2022-12-18T17:37:13.913Z,22.88
2022-12-18T17:39:41.139Z,20.92
2022-12-18T17:42:15.005Z,20.75
2022-12-18T17:44:45.463Z,20.92
2022-12-18T17:47:14.053Z,21.05
2022-12-18T17:49:41.240Z,21.35
2022-12-18T17:52:08.884Z,20.58
2022-12-18T17:54:39.859Z,21.33
2022-12-18T17:57:07.569Z,22.02
2022-12-18T17:59:35.529Z,22.02
2022-12-18T18:02:03.015Z,21.15
2022-12-18T18:04:30.335Z,22.02
2022-12-18T18:06:57.671Z,20.52
2022-12-18T18:09:25.145Z,22.70
2022-12-18T18:12:11.748Z,21.08
2022-12-18T18:14:39.143Z,22.85
2022-12-18T18:17:06.548Z,21.73
2022-12-18T18:19:34.571Z,22.67
2022-12-18T18:22:04.568Z,21.88
2022-12-18T18:24:36.214Z,20.75
2022-12-18T18:27:03.557Z,21.80
2022-12-18T18:29:30.771Z,22.13
2022-12-18T18:31:59.051Z,22.83
2022-12-18T18:34:29.381Z,21.55
2022-12-18T18:36:59.892Z,21.30
2022-12-18T18:39:27.304Z,24.15
2022-12-18T18:41:55.065Z,22.20
2022-12-18T18:44:24.863Z,23.17
2022-12-18T18:46:58.004Z,22.83
2022-12-18T18:49:27.887Z,23.52
2022-12-18T18:51:56.511Z,22.15
2022-12-18T18:54:24.570Z,23.30
2022-12-18T18:59:39.988Z,22.45
2022-12-18T19:02:09.538Z,21.75
2022-12-18T19:04:38.894Z,22.20
2022-12-18T19:07:15.096Z,22.52
2022-12-18T19:09:57.733Z,22.13
2022-12-18T19:12:48.099Z,23.48
2022-12-18T19:15:15.351Z,22.50
2022-12-18T19:17:42.816Z,22.08
2022-12-18T19:20:17.569Z,22.65
2022-12-18T19:22:48.600Z,22.73
2022-12-18T19:25:40.160Z,23.13
2022-12-18T19:28:21.179Z,23.38
2022-12-18T19:30:58.641Z,21.65
2022-12-18T19:33:42.413Z,22.40
2022-12-18T19:36:23.747Z,23.92
2022-12-18T19:38:52.427Z,22.90
2022-12-18T19:41:21.678Z,23.10
2022-12-18T19:43:51.780Z,22.75
2022-12-18T19:46:22.769Z,20.58
2022-12-18T19:48:51.434Z,21.80
2022-12-18T19:51:21.736Z,23.23
2022-12-18T19:56:28.251Z,22.25
2022-12-18T19:58:55.758Z,23.73
2022-12-18T20:01:24.887Z,23.40
2022-12-18T20:03:55.257Z,23.95
2022-12-18T20:06:28.819Z,23.25
2022-12-18T20:09:00.608Z,23.35
2022-12-18T20:11:29.967Z,23.13
2022-12-18T20:13:58.266Z,23.25
2022-12-18T20:16:25.663Z,25.00
2022-12-18T20:18:53.113Z,25.13
2022-12-18T20:21:20.369Z,24.70
2022-12-18T20:23:49.261Z,23.98
2022-12-18T20:26:16.496Z,25.75
2022-12-18T20:28:43.844Z,25.65
2022-12-18T20:31:13.295Z,24.33
2022-12-18T20:33:42.984Z,25.08
2022-12-18T20:36:15.275Z,26.08
2022-12-18T20:38:44.253Z,25.85
2022-12-18T20:41:15.785Z,26.00
2022-12-18T20:43:43.929Z,25.92
2022-12-18T20:46:14.936Z,25.88
2022-12-18T20:48:43.038Z,26.10
2022-12-18T20:51:16.747Z,26.23
2022-12-18T20:53:45.303Z,26.73
2022-12-18T20:56:20.554Z,24.75
2022-12-18T20:58:55.102Z,28.02
2022-12-18T21:01:24.059Z,27.70
2022-12-18T21:03:52.900Z,27.92
2022-12-18T21:06:22.325Z,26.45
2022-12-18T21:08:49.921Z,27.83
2022-12-18T21:11:41.834Z,27.73
2022-12-18T21:14:12.121Z,28.00
2022-12-18T21:16:40.548Z,27.95
2022-12-18T21:19:08.037Z,27.52
2022-12-18T21:21:38.537Z,27.80
2022-12-18T21:24:08.678Z,28.42
2022-12-18T21:26:41.862Z,28.70
2022-12-18T21:29:15.909Z,28.08
2022-12-18T21:31:43.801Z,30.30
2022-12-18T21:34:16.965Z,29.90
2022-12-18T21:36:45.915Z,27.92
2022-12-18T21:39:15.395Z,28.83
2022-12-18T21:42:01.457Z,31.15
2022-12-18T21:44:32.799Z,29.33
2022-12-18T21:47:21.379Z,29.38
2022-12-18T21:49:53.887Z,30.55
2022-12-18T21:52:32.046Z,31.92
2022-12-18T21:55:07.876Z,30.10
2022-12-18T21:57:39.702Z,31.52
2022-12-18T22:02:41.098Z,29.83
2022-12-18T22:05:08.975Z,29.58
2022-12-18T22:07:36.027Z,31.40
2022-12-18T22:10:03.543Z,31.85
2022-12-18T22:12:43.192Z,30.60
2022-12-18T22:15:21.377Z,31.75
2022-12-18T22:17:54.145Z,31.48
2022-12-18T22:20:29.337Z,32.50
2022-12-18T22:22:58.177Z,31.67
2022-12-18T22:25:26.633Z,31.90
2022-12-18T22:28:12.150Z,32.28
2022-12-18T22:30:39.575Z,32.63
2022-12-18T22:33:06.857Z,31.52
2022-12-18T22:35:38.261Z,33.25
2022-12-18T22:38:05.487Z,32.60
2022-12-18T22:40:35.858Z,34.15
2022-12-18T22:43:03.154Z,32.70
2022-12-18T22:45:30.410Z,33.53
2022-12-18T22:48:03.314Z,34.78
2022-12-18T22:50:31.523Z,34.55
2022-12-18T22:52:58.447Z,34.17
2022-12-18T22:55:26.086Z,35.22
2022-12-18T22:57:53.740Z,36.25
2022-12-18T23:00:24.550Z,35.00
2022-12-18T23:03:00.024Z,35.13
2022-12-18T23:05:29.242Z,34.58
2022-12-18T23:07:56.646Z,35.53
2022-12-18T23:10:23.702Z,34.60
2022-12-18T23:12:50.842Z,34.95
2022-12-18T23:15:19.011Z,33.53
2022-12-18T23:17:52.302Z,36.38
2022-12-18T23:20:19.867Z,34.17
2022-12-18T23:22:47.103Z,34.22
2022-12-18T23:25:15.279Z,33.38
2022-12-18T23:27:43.566Z,34.53
2022-12-18T23:30:11.563Z,33.45
2022-12-18T23:32:39.054Z,35.80
2022-12-18T23:35:07.064Z,33.25
2022-12-18T23:37:58.331Z,36.25
2022-12-18T23:40:23.867Z,34.22
2022-12-18T23:42:51.126Z,34.10
2022-12-18T23:45:19.260Z,33.88
2022-12-18T23:47:48.286Z,34.63
2022-12-18T23:50:19.781Z,34.17
2022-12-18T23:52:58.019Z,34.40
2022-12-18T23:55:33.541Z,33.13
2022-12-18T23:58:03.019Z,33.70
